<?xml version="1.0" encoding="UTF-8" standalone="no" ?>
<gpx xmlns="http://www.topografix.com/GPX/1/1" xmlns:xsi="http://www.w3.org/2001/XMLSchema-instance" xsi:schemaLocation="http://www.topografix.com/GPX/1/1 http://www.topografix.com/GPX/1/1/gpx.xsd" version="1.1" creator="VisuGPX - https://www.visugpx.com">
  <metadata>
    <name>Robinson_Sceaux_19 km</name>
  </metadata>
  <wpt lat="48.77993" lon="2.28163">
    <ele>97</ele>
    <name><![CDATA[Point de passage 1]]></name>
  </wpt>
  <wpt lat="48.78143" lon="2.29743">
    <ele>80</ele>
    <name><![CDATA[Point de passage 2]]></name>
  </wpt>
  <trk>
    <name><![CDATA[Robinson_Sceaux_19 km]]></name>
    <extensions>
      <line xmlns="http://www.topografix.com/GPX/gpx_style/0/2">
        <color>0000FF</color>
        <width>4</width>
      </line>
    </extensions>
    <trkseg>
      <trkpt lat="48.77993" lon="2.28163">
        <ele>97</ele>
        <time>2026-02-19T15:57:24.000Z</time>
      </trkpt>
      <trkpt lat="48.77973" lon="2.28153">
        <ele>97</ele>
        <time>2026-02-19T15:57:48.000Z</time>
      </trkpt>
      <trkpt lat="48.77967" lon="2.28126">
        <ele>97</ele>
        <time>2026-02-19T15:58:09.000Z</time>
      </trkpt>
      <trkpt lat="48.77956" lon="2.28105">
        <ele>97</ele>
        <time>2026-02-19T15:58:29.000Z</time>
      </trkpt>
      <trkpt lat="48.7791" lon="2.28077">
        <ele>102</ele>
        <time>2026-02-19T16:00:18.000Z</time>
      </trkpt>
      <trkpt lat="48.77912" lon="2.28002">
        <ele>103</ele>
        <time>2026-02-19T16:01:25.000Z</time>
      </trkpt>
      <trkpt lat="48.77856" lon="2.27961">
        <ele>103</ele>
        <time>2026-02-19T16:02:36.000Z</time>
      </trkpt>
      <trkpt lat="48.77856" lon="2.27891">
        <ele>103</ele>
        <time>2026-02-19T16:03:29.000Z</time>
      </trkpt>
      <trkpt lat="48.77841" lon="2.27796">
        <ele>102</ele>
        <time>2026-02-19T16:04:43.000Z</time>
      </trkpt>
      <trkpt lat="48.77826" lon="2.27734">
        <ele>101</ele>
        <time>2026-02-19T16:05:33.000Z</time>
      </trkpt>
      <trkpt lat="48.77841" lon="2.27713">
        <ele>102</ele>
        <time>2026-02-19T16:06:07.000Z</time>
      </trkpt>
      <trkpt lat="48.77906" lon="2.27327">
        <ele>116</ele>
        <time>2026-02-19T16:13:31.000Z</time>
      </trkpt>
      <trkpt lat="48.77963" lon="2.27357">
        <ele>117</ele>
        <time>2026-02-19T16:14:50.000Z</time>
      </trkpt>
      <trkpt lat="48.77993" lon="2.27284">
        <ele>120</ele>
        <time>2026-02-19T16:16:26.000Z</time>
      </trkpt>
      <trkpt lat="48.78022" lon="2.27269">
        <ele>123</ele>
        <time>2026-02-19T16:17:32.000Z</time>
      </trkpt>
      <trkpt lat="48.78041" lon="2.27251">
        <ele>126</ele>
        <time>2026-02-19T16:18:28.000Z</time>
      </trkpt>
      <trkpt lat="48.78063" lon="2.2723">
        <ele>128</ele>
        <time>2026-02-19T16:19:18.000Z</time>
      </trkpt>
      <trkpt lat="48.78065" lon="2.27229">
        <ele>128</ele>
        <time>2026-02-19T16:19:21.000Z</time>
      </trkpt>
      <trkpt lat="48.78063" lon="2.27221">
        <ele>128</ele>
        <time>2026-02-19T16:19:27.000Z</time>
      </trkpt>
      <trkpt lat="48.78058" lon="2.27211">
        <ele>130</ele>
        <time>2026-02-19T16:19:57.000Z</time>
      </trkpt>
      <trkpt lat="48.78052" lon="2.27169">
        <ele>133</ele>
        <time>2026-02-19T16:21:00.000Z</time>
      </trkpt>
      <trkpt lat="48.78042" lon="2.27142">
        <ele>136</ele>
        <time>2026-02-19T16:21:55.000Z</time>
      </trkpt>
      <trkpt lat="48.78042" lon="2.27142">
        <ele>136</ele>
        <time>2026-02-19T16:21:55.000Z</time>
      </trkpt>
      <trkpt lat="48.78036" lon="2.2713">
        <ele>138</ele>
        <time>2026-02-19T16:22:27.000Z</time>
      </trkpt>
      <trkpt lat="48.78019" lon="2.27104">
        <ele>143</ele>
        <time>2026-02-19T16:23:46.000Z</time>
      </trkpt>
      <trkpt lat="48.78006" lon="2.27076">
        <ele>148</ele>
        <time>2026-02-19T16:25:03.000Z</time>
      </trkpt>
      <trkpt lat="48.78007" lon="2.27059">
        <ele>148</ele>
        <time>2026-02-19T16:25:15.000Z</time>
      </trkpt>
      <trkpt lat="48.78005" lon="2.27042">
        <ele>148</ele>
        <time>2026-02-19T16:25:28.000Z</time>
      </trkpt>
      <trkpt lat="48.77986" lon="2.27013">
        <ele>152</ele>
        <time>2026-02-19T16:26:39.000Z</time>
      </trkpt>
      <trkpt lat="48.77984" lon="2.27003">
        <ele>153</ele>
        <time>2026-02-19T16:26:58.000Z</time>
      </trkpt>
      <trkpt lat="48.77983" lon="2.2697">
        <ele>151</ele>
        <time>2026-02-19T16:27:23.000Z</time>
      </trkpt>
      <trkpt lat="48.77999" lon="2.26925">
        <ele>147</ele>
        <time>2026-02-19T16:28:01.000Z</time>
      </trkpt>
      <trkpt lat="48.78" lon="2.26904">
        <ele>147</ele>
        <time>2026-02-19T16:28:16.000Z</time>
      </trkpt>
      <trkpt lat="48.77989" lon="2.2684">
        <ele>151</ele>
        <time>2026-02-19T16:29:47.000Z</time>
      </trkpt>
      <trkpt lat="48.77983" lon="2.26839">
        <ele>152</ele>
        <time>2026-02-19T16:30:04.000Z</time>
      </trkpt>
      <trkpt lat="48.77983" lon="2.26845">
        <ele>151</ele>
        <time>2026-02-19T16:30:08.000Z</time>
      </trkpt>
      <trkpt lat="48.77983" lon="2.26839">
        <ele>152</ele>
        <time>2026-02-19T16:30:22.000Z</time>
      </trkpt>
      <trkpt lat="48.77989" lon="2.2684">
        <ele>151</ele>
        <time>2026-02-19T16:30:29.000Z</time>
      </trkpt>
      <trkpt lat="48.77991" lon="2.26824">
        <ele>152</ele>
        <time>2026-02-19T16:30:52.000Z</time>
      </trkpt>
      <trkpt lat="48.78013" lon="2.26783">
        <ele>153</ele>
        <time>2026-02-19T16:31:42.000Z</time>
      </trkpt>
      <trkpt lat="48.78013" lon="2.26783">
        <ele>153</ele>
        <time>2026-02-19T16:31:42.000Z</time>
      </trkpt>
      <trkpt lat="48.78024" lon="2.26758">
        <ele>154</ele>
        <time>2026-02-19T16:32:15.000Z</time>
      </trkpt>
      <trkpt lat="48.78027" lon="2.26746">
        <ele>154</ele>
        <time>2026-02-19T16:32:24.000Z</time>
      </trkpt>
      <trkpt lat="48.78036" lon="2.26757">
        <ele>153</ele>
        <time>2026-02-19T16:32:37.000Z</time>
      </trkpt>
      <trkpt lat="48.7805" lon="2.2679">
        <ele>151</ele>
        <time>2026-02-19T16:33:06.000Z</time>
      </trkpt>
      <trkpt lat="48.78071" lon="2.26816">
        <ele>147</ele>
        <time>2026-02-19T16:33:38.000Z</time>
      </trkpt>
      <trkpt lat="48.78084" lon="2.26816">
        <ele>146</ele>
        <time>2026-02-19T16:33:52.000Z</time>
      </trkpt>
      <trkpt lat="48.78089" lon="2.26765">
        <ele>145</ele>
        <time>2026-02-19T16:34:31.000Z</time>
      </trkpt>
      <trkpt lat="48.78094" lon="2.26754">
        <ele>145</ele>
        <time>2026-02-19T16:34:41.000Z</time>
      </trkpt>
      <trkpt lat="48.78123" lon="2.26726">
        <ele>136</ele>
        <time>2026-02-19T16:35:20.000Z</time>
      </trkpt>
      <trkpt lat="48.78158" lon="2.26749">
        <ele>133</ele>
        <time>2026-02-19T16:36:04.000Z</time>
      </trkpt>
      <trkpt lat="48.78176" lon="2.2675">
        <ele>131</ele>
        <time>2026-02-19T16:36:25.000Z</time>
      </trkpt>
      <trkpt lat="48.78216" lon="2.26743">
        <ele>128</ele>
        <time>2026-02-19T16:37:11.000Z</time>
      </trkpt>
      <trkpt lat="48.78245" lon="2.26721">
        <ele>127</ele>
        <time>2026-02-19T16:37:49.000Z</time>
      </trkpt>
      <trkpt lat="48.78255" lon="2.26694">
        <ele>128</ele>
        <time>2026-02-19T16:38:22.000Z</time>
      </trkpt>
      <trkpt lat="48.78252" lon="2.26695">
        <ele>128</ele>
        <time>2026-02-19T16:38:25.000Z</time>
      </trkpt>
      <trkpt lat="48.78255" lon="2.26694">
        <ele>128</ele>
        <time>2026-02-19T16:38:28.000Z</time>
      </trkpt>
      <trkpt lat="48.78253" lon="2.26674">
        <ele>128</ele>
        <time>2026-02-19T16:38:43.000Z</time>
      </trkpt>
      <trkpt lat="48.78249" lon="2.26637">
        <ele>129</ele>
        <time>2026-02-19T16:39:21.000Z</time>
      </trkpt>
      <trkpt lat="48.78249" lon="2.26637">
        <ele>129</ele>
        <time>2026-02-19T16:39:21.000Z</time>
      </trkpt>
      <trkpt lat="48.78247" lon="2.26621">
        <ele>130</ele>
        <time>2026-02-19T16:39:44.000Z</time>
      </trkpt>
      <trkpt lat="48.7824" lon="2.26587">
        <ele>132</ele>
        <time>2026-02-19T16:40:31.000Z</time>
      </trkpt>
      <trkpt lat="48.7822" lon="2.26469">
        <ele>135</ele>
        <time>2026-02-19T16:42:34.000Z</time>
      </trkpt>
      <trkpt lat="48.7822" lon="2.26469">
        <ele>134</ele>
        <time>2026-02-19T16:42:35.000Z</time>
      </trkpt>
      <trkpt lat="48.78209" lon="2.26451">
        <ele>135</ele>
        <time>2026-02-19T16:43:04.000Z</time>
      </trkpt>
      <trkpt lat="48.78195" lon="2.26442">
        <ele>136</ele>
        <time>2026-02-19T16:43:32.000Z</time>
      </trkpt>
      <trkpt lat="48.7818" lon="2.26438">
        <ele>138</ele>
        <time>2026-02-19T16:44:10.000Z</time>
      </trkpt>
      <trkpt lat="48.78172" lon="2.26425">
        <ele>137</ele>
        <time>2026-02-19T16:44:23.000Z</time>
      </trkpt>
      <trkpt lat="48.78121" lon="2.2639">
        <ele>141</ele>
        <time>2026-02-19T16:46:08.000Z</time>
      </trkpt>
      <trkpt lat="48.78127" lon="2.26367">
        <ele>139</ele>
        <time>2026-02-19T16:46:26.000Z</time>
      </trkpt>
      <trkpt lat="48.78115" lon="2.26359">
        <ele>140</ele>
        <time>2026-02-19T16:46:52.000Z</time>
      </trkpt>
      <trkpt lat="48.78118" lon="2.26338">
        <ele>140</ele>
        <time>2026-02-19T16:47:08.000Z</time>
      </trkpt>
      <trkpt lat="48.78165" lon="2.26365">
        <ele>136</ele>
        <time>2026-02-19T16:48:05.000Z</time>
      </trkpt>
      <trkpt lat="48.7817" lon="2.26357">
        <ele>136</ele>
        <time>2026-02-19T16:48:13.000Z</time>
      </trkpt>
      <trkpt lat="48.78189" lon="2.26359">
        <ele>136</ele>
        <time>2026-02-19T16:48:34.000Z</time>
      </trkpt>
      <trkpt lat="48.78197" lon="2.26359">
        <ele>136</ele>
        <time>2026-02-19T16:48:44.000Z</time>
      </trkpt>
      <trkpt lat="48.78205" lon="2.2635">
        <ele>135</ele>
        <time>2026-02-19T16:48:54.000Z</time>
      </trkpt>
      <trkpt lat="48.78207" lon="2.26331">
        <ele>136</ele>
        <time>2026-02-19T16:49:19.000Z</time>
      </trkpt>
      <trkpt lat="48.78207" lon="2.26331">
        <ele>136</ele>
        <time>2026-02-19T16:49:19.000Z</time>
      </trkpt>
      <trkpt lat="48.78207" lon="2.26326">
        <ele>136</ele>
        <time>2026-02-19T16:49:23.000Z</time>
      </trkpt>
      <trkpt lat="48.78216" lon="2.26306">
        <ele>137</ele>
        <time>2026-02-19T16:49:51.000Z</time>
      </trkpt>
      <trkpt lat="48.78194" lon="2.26288">
        <ele>137</ele>
        <time>2026-02-19T16:50:20.000Z</time>
      </trkpt>
      <trkpt lat="48.78194" lon="2.26288">
        <ele>137</ele>
        <time>2026-02-19T16:50:20.000Z</time>
      </trkpt>
      <trkpt lat="48.78201" lon="2.26276">
        <ele>138</ele>
        <time>2026-02-19T16:50:42.000Z</time>
      </trkpt>
      <trkpt lat="48.78214" lon="2.26253">
        <ele>139</ele>
        <time>2026-02-19T16:51:15.000Z</time>
      </trkpt>
      <trkpt lat="48.78224" lon="2.26256">
        <ele>139</ele>
        <time>2026-02-19T16:51:27.000Z</time>
      </trkpt>
      <trkpt lat="48.78236" lon="2.26222">
        <ele>140</ele>
        <time>2026-02-19T16:52:06.000Z</time>
      </trkpt>
      <trkpt lat="48.78236" lon="2.26222">
        <ele>140</ele>
        <time>2026-02-19T16:52:07.000Z</time>
      </trkpt>
      <trkpt lat="48.78274" lon="2.26264">
        <ele>135</ele>
        <time>2026-02-19T16:53:02.000Z</time>
      </trkpt>
      <trkpt lat="48.78286" lon="2.26259">
        <ele>132</ele>
        <time>2026-02-19T16:53:16.000Z</time>
      </trkpt>
      <trkpt lat="48.78285" lon="2.26211">
        <ele>136</ele>
        <time>2026-02-19T16:54:33.000Z</time>
      </trkpt>
      <trkpt lat="48.78398" lon="2.26175">
        <ele>133</ele>
        <time>2026-02-19T16:56:45.000Z</time>
      </trkpt>
      <trkpt lat="48.78417" lon="2.2619">
        <ele>138</ele>
        <time>2026-02-19T16:58:01.000Z</time>
      </trkpt>
      <trkpt lat="48.78428" lon="2.2633">
        <ele>142</ele>
        <time>2026-02-19T17:00:29.000Z</time>
      </trkpt>
      <trkpt lat="48.78445" lon="2.2639">
        <ele>146</ele>
        <time>2026-02-19T17:02:00.000Z</time>
      </trkpt>
      <trkpt lat="48.78468" lon="2.26404">
        <ele>148</ele>
        <time>2026-02-19T17:02:49.000Z</time>
      </trkpt>
      <trkpt lat="48.78469" lon="2.26389">
        <ele>149</ele>
        <time>2026-02-19T17:03:11.000Z</time>
      </trkpt>
      <trkpt lat="48.78487" lon="2.26384">
        <ele>150</ele>
        <time>2026-02-19T17:03:42.000Z</time>
      </trkpt>
      <trkpt lat="48.78509" lon="2.26455">
        <ele>146</ele>
        <time>2026-02-19T17:04:41.000Z</time>
      </trkpt>
      <trkpt lat="48.78539" lon="2.26488">
        <ele>145</ele>
        <time>2026-02-19T17:05:23.000Z</time>
      </trkpt>
      <trkpt lat="48.78567" lon="2.265">
        <ele>143</ele>
        <time>2026-02-19T17:05:57.000Z</time>
      </trkpt>
      <trkpt lat="48.7859" lon="2.26486">
        <ele>142</ele>
        <time>2026-02-19T17:06:25.000Z</time>
      </trkpt>
      <trkpt lat="48.78594" lon="2.26485">
        <ele>142</ele>
        <time>2026-02-19T17:06:30.000Z</time>
      </trkpt>
      <trkpt lat="48.78595" lon="2.26483">
        <ele>142</ele>
        <time>2026-02-19T17:06:32.000Z</time>
      </trkpt>
      <trkpt lat="48.78591" lon="2.26473">
        <ele>143</ele>
        <time>2026-02-19T17:06:51.000Z</time>
      </trkpt>
      <trkpt lat="48.78577" lon="2.26348">
        <ele>150</ele>
        <time>2026-02-19T17:09:39.000Z</time>
      </trkpt>
      <trkpt lat="48.78574" lon="2.26289">
        <ele>153</ele>
        <time>2026-02-19T17:10:54.000Z</time>
      </trkpt>
      <trkpt lat="48.78576" lon="2.26222">
        <ele>155</ele>
        <time>2026-02-19T17:12:05.000Z</time>
      </trkpt>
      <trkpt lat="48.78576" lon="2.26222">
        <ele>155</ele>
        <time>2026-02-19T17:12:05.000Z</time>
      </trkpt>
      <trkpt lat="48.78575" lon="2.26191">
        <ele>157</ele>
        <time>2026-02-19T17:12:49.000Z</time>
      </trkpt>
      <trkpt lat="48.78582" lon="2.26164">
        <ele>158</ele>
        <time>2026-02-19T17:13:21.000Z</time>
      </trkpt>
      <trkpt lat="48.78582" lon="2.26142">
        <ele>159</ele>
        <time>2026-02-19T17:13:47.000Z</time>
      </trkpt>
      <trkpt lat="48.78574" lon="2.26103">
        <ele>160</ele>
        <time>2026-02-19T17:14:28.000Z</time>
      </trkpt>
      <trkpt lat="48.78559" lon="2.26093">
        <ele>161</ele>
        <time>2026-02-19T17:14:57.000Z</time>
      </trkpt>
      <trkpt lat="48.78542" lon="2.26065">
        <ele>161</ele>
        <time>2026-02-19T17:15:26.000Z</time>
      </trkpt>
      <trkpt lat="48.78526" lon="2.26029">
        <ele>160</ele>
        <time>2026-02-19T17:15:59.000Z</time>
      </trkpt>
      <trkpt lat="48.78518" lon="2.25973">
        <ele>157</ele>
        <time>2026-02-19T17:16:43.000Z</time>
      </trkpt>
      <trkpt lat="48.78512" lon="2.25952">
        <ele>154</ele>
        <time>2026-02-19T17:17:00.000Z</time>
      </trkpt>
      <trkpt lat="48.78513" lon="2.25921">
        <ele>152</ele>
        <time>2026-02-19T17:17:24.000Z</time>
      </trkpt>
      <trkpt lat="48.78504" lon="2.25895">
        <ele>149</ele>
        <time>2026-02-19T17:17:46.000Z</time>
      </trkpt>
      <trkpt lat="48.78504" lon="2.25801">
        <ele>152</ele>
        <time>2026-02-19T17:19:27.000Z</time>
      </trkpt>
      <trkpt lat="48.78493" lon="2.25768">
        <ele>153</ele>
        <time>2026-02-19T17:20:05.000Z</time>
      </trkpt>
      <trkpt lat="48.78495" lon="2.25767">
        <ele>153</ele>
        <time>2026-02-19T17:20:07.000Z</time>
      </trkpt>
      <trkpt lat="48.78481" lon="2.25762">
        <ele>152</ele>
        <time>2026-02-19T17:20:23.000Z</time>
      </trkpt>
      <trkpt lat="48.78467" lon="2.25715">
        <ele>155</ele>
        <time>2026-02-19T17:21:33.000Z</time>
      </trkpt>
      <trkpt lat="48.78451" lon="2.25711">
        <ele>154</ele>
        <time>2026-02-19T17:21:51.000Z</time>
      </trkpt>
      <trkpt lat="48.78445" lon="2.25728">
        <ele>153</ele>
        <time>2026-02-19T17:22:06.000Z</time>
      </trkpt>
      <trkpt lat="48.7842" lon="2.25715">
        <ele>152</ele>
        <time>2026-02-19T17:22:36.000Z</time>
      </trkpt>
      <trkpt lat="48.78382" lon="2.25725">
        <ele>151</ele>
        <time>2026-02-19T17:23:21.000Z</time>
      </trkpt>
      <trkpt lat="48.78318" lon="2.25677">
        <ele>155</ele>
        <time>2026-02-19T17:25:24.000Z</time>
      </trkpt>
      <trkpt lat="48.7826" lon="2.25871">
        <ele>151</ele>
        <time>2026-02-19T17:28:05.000Z</time>
      </trkpt>
      <trkpt lat="48.78249" lon="2.25885">
        <ele>151</ele>
        <time>2026-02-19T17:28:21.000Z</time>
      </trkpt>
      <trkpt lat="48.78242" lon="2.25867">
        <ele>152</ele>
        <time>2026-02-19T17:28:47.000Z</time>
      </trkpt>
      <trkpt lat="48.78227" lon="2.25867">
        <ele>153</ele>
        <time>2026-02-19T17:29:14.000Z</time>
      </trkpt>
      <trkpt lat="48.78229" lon="2.25834">
        <ele>154</ele>
        <time>2026-02-19T17:29:49.000Z</time>
      </trkpt>
      <trkpt lat="48.78166" lon="2.25813">
        <ele>158</ele>
        <time>2026-02-19T17:31:44.000Z</time>
      </trkpt>
      <trkpt lat="48.78164" lon="2.25802">
        <ele>158</ele>
        <time>2026-02-19T17:31:53.000Z</time>
      </trkpt>
      <trkpt lat="48.78034" lon="2.25759">
        <ele>163</ele>
        <time>2026-02-19T17:35:17.000Z</time>
      </trkpt>
      <trkpt lat="48.78035" lon="2.2574">
        <ele>163</ele>
        <time>2026-02-19T17:35:32.000Z</time>
      </trkpt>
      <trkpt lat="48.78007" lon="2.25732">
        <ele>164</ele>
        <time>2026-02-19T17:36:15.000Z</time>
      </trkpt>
      <trkpt lat="48.77998" lon="2.25786">
        <ele>164</ele>
        <time>2026-02-19T17:36:57.000Z</time>
      </trkpt>
      <trkpt lat="48.77979" lon="2.25781">
        <ele>165</ele>
        <time>2026-02-19T17:37:29.000Z</time>
      </trkpt>
      <trkpt lat="48.77967" lon="2.25762">
        <ele>166</ele>
        <time>2026-02-19T17:37:59.000Z</time>
      </trkpt>
      <trkpt lat="48.77954" lon="2.25759">
        <ele>166</ele>
        <time>2026-02-19T17:38:14.000Z</time>
      </trkpt>
      <trkpt lat="48.77952" lon="2.25762">
        <ele>166</ele>
        <time>2026-02-19T17:38:17.000Z</time>
      </trkpt>
      <trkpt lat="48.77952" lon="2.25757">
        <ele>166</ele>
        <time>2026-02-19T17:38:21.000Z</time>
      </trkpt>
      <trkpt lat="48.77952" lon="2.2572">
        <ele>166</ele>
        <time>2026-02-19T17:38:49.000Z</time>
      </trkpt>
      <trkpt lat="48.77939" lon="2.2572">
        <ele>166</ele>
        <time>2026-02-19T17:39:04.000Z</time>
      </trkpt>
      <trkpt lat="48.7791" lon="2.25746">
        <ele>166</ele>
        <time>2026-02-19T17:39:42.000Z</time>
      </trkpt>
      <trkpt lat="48.77899" lon="2.25751">
        <ele>166</ele>
        <time>2026-02-19T17:39:56.000Z</time>
      </trkpt>
      <trkpt lat="48.77899" lon="2.25751">
        <ele>166</ele>
        <time>2026-02-19T17:39:56.000Z</time>
      </trkpt>
      <trkpt lat="48.77894" lon="2.25753">
        <ele>166</ele>
        <time>2026-02-19T17:40:01.000Z</time>
      </trkpt>
      <trkpt lat="48.77891" lon="2.25757">
        <ele>166</ele>
        <time>2026-02-19T17:40:06.000Z</time>
      </trkpt>
      <trkpt lat="48.77873" lon="2.2576">
        <ele>166</ele>
        <time>2026-02-19T17:40:26.000Z</time>
      </trkpt>
      <trkpt lat="48.7787" lon="2.25753">
        <ele>166</ele>
        <time>2026-02-19T17:40:33.000Z</time>
      </trkpt>
      <trkpt lat="48.77848" lon="2.2577">
        <ele>166</ele>
        <time>2026-02-19T17:41:00.000Z</time>
      </trkpt>
      <trkpt lat="48.77868" lon="2.25832">
        <ele>165</ele>
        <time>2026-02-19T17:41:52.000Z</time>
      </trkpt>
      <trkpt lat="48.77869" lon="2.25833">
        <ele>165</ele>
        <time>2026-02-19T17:41:53.000Z</time>
      </trkpt>
      <trkpt lat="48.77887" lon="2.25818">
        <ele>166</ele>
        <time>2026-02-19T17:42:27.000Z</time>
      </trkpt>
      <trkpt lat="48.77915" lon="2.25799">
        <ele>166</ele>
        <time>2026-02-19T17:43:02.000Z</time>
      </trkpt>
      <trkpt lat="48.77928" lon="2.25798">
        <ele>166</ele>
        <time>2026-02-19T17:43:17.000Z</time>
      </trkpt>
      <trkpt lat="48.77943" lon="2.25808">
        <ele>166</ele>
        <time>2026-02-19T17:43:35.000Z</time>
      </trkpt>
      <trkpt lat="48.77953" lon="2.25812">
        <ele>166</ele>
        <time>2026-02-19T17:43:48.000Z</time>
      </trkpt>
      <trkpt lat="48.7796" lon="2.25821">
        <ele>166</ele>
        <time>2026-02-19T17:43:59.000Z</time>
      </trkpt>
      <trkpt lat="48.77975" lon="2.25847">
        <ele>164</ele>
        <time>2026-02-19T17:44:25.000Z</time>
      </trkpt>
      <trkpt lat="48.77975" lon="2.25847">
        <ele>164</ele>
        <time>2026-02-19T17:44:25.000Z</time>
      </trkpt>
      <trkpt lat="48.77979" lon="2.25853">
        <ele>164</ele>
        <time>2026-02-19T17:44:32.000Z</time>
      </trkpt>
      <trkpt lat="48.77982" lon="2.25856">
        <ele>163</ele>
        <time>2026-02-19T17:44:36.000Z</time>
      </trkpt>
      <trkpt lat="48.7798" lon="2.2587">
        <ele>163</ele>
        <time>2026-02-19T17:44:47.000Z</time>
      </trkpt>
      <trkpt lat="48.77935" lon="2.25871">
        <ele>164</ele>
        <time>2026-02-19T17:45:48.000Z</time>
      </trkpt>
      <trkpt lat="48.77888" lon="2.25891">
        <ele>165</ele>
        <time>2026-02-19T17:46:55.000Z</time>
      </trkpt>
      <trkpt lat="48.77887" lon="2.2589">
        <ele>165</ele>
        <time>2026-02-19T17:46:57.000Z</time>
      </trkpt>
      <trkpt lat="48.77909" lon="2.2596">
        <ele>162</ele>
        <time>2026-02-19T17:47:56.000Z</time>
      </trkpt>
      <trkpt lat="48.77946" lon="2.25942">
        <ele>162</ele>
        <time>2026-02-19T17:48:41.000Z</time>
      </trkpt>
      <trkpt lat="48.77953" lon="2.25988">
        <ele>161</ele>
        <time>2026-02-19T17:49:17.000Z</time>
      </trkpt>
      <trkpt lat="48.77942" lon="2.26008">
        <ele>161</ele>
        <time>2026-02-19T17:49:37.000Z</time>
      </trkpt>
      <trkpt lat="48.77922" lon="2.26004">
        <ele>161</ele>
        <time>2026-02-19T17:50:00.000Z</time>
      </trkpt>
      <trkpt lat="48.77903" lon="2.26026">
        <ele>162</ele>
        <time>2026-02-19T17:50:37.000Z</time>
      </trkpt>
      <trkpt lat="48.77927" lon="2.26054">
        <ele>160</ele>
        <time>2026-02-19T17:51:11.000Z</time>
      </trkpt>
      <trkpt lat="48.77932" lon="2.26085">
        <ele>159</ele>
        <time>2026-02-19T17:51:35.000Z</time>
      </trkpt>
      <trkpt lat="48.77911" lon="2.26108">
        <ele>160</ele>
        <time>2026-02-19T17:52:14.000Z</time>
      </trkpt>
      <trkpt lat="48.77894" lon="2.26087">
        <ele>161</ele>
        <time>2026-02-19T17:52:50.000Z</time>
      </trkpt>
      <trkpt lat="48.77877" lon="2.26132">
        <ele>162</ele>
        <time>2026-02-19T17:53:39.000Z</time>
      </trkpt>
      <trkpt lat="48.77879" lon="2.26129">
        <ele>162</ele>
        <time>2026-02-19T17:53:42.000Z</time>
      </trkpt>
      <trkpt lat="48.77881" lon="2.26133">
        <ele>162</ele>
        <time>2026-02-19T17:53:45.000Z</time>
      </trkpt>
      <trkpt lat="48.77889" lon="2.26165">
        <ele>162</ele>
        <time>2026-02-19T17:54:11.000Z</time>
      </trkpt>
      <trkpt lat="48.77903" lon="2.26188">
        <ele>160</ele>
        <time>2026-02-19T17:54:34.000Z</time>
      </trkpt>
      <trkpt lat="48.77917" lon="2.26211">
        <ele>159</ele>
        <time>2026-02-19T17:54:58.000Z</time>
      </trkpt>
      <trkpt lat="48.77934" lon="2.26222">
        <ele>158</ele>
        <time>2026-02-19T17:55:19.000Z</time>
      </trkpt>
      <trkpt lat="48.77934" lon="2.26222">
        <ele>158</ele>
        <time>2026-02-19T17:55:19.000Z</time>
      </trkpt>
      <trkpt lat="48.77952" lon="2.26234">
        <ele>156</ele>
        <time>2026-02-19T17:55:41.000Z</time>
      </trkpt>
      <trkpt lat="48.7796" lon="2.26274">
        <ele>156</ele>
        <time>2026-02-19T17:56:12.000Z</time>
      </trkpt>
      <trkpt lat="48.77956" lon="2.26304">
        <ele>157</ele>
        <time>2026-02-19T17:56:45.000Z</time>
      </trkpt>
      <trkpt lat="48.77987" lon="2.26328">
        <ele>152</ele>
        <time>2026-02-19T17:57:24.000Z</time>
      </trkpt>
      <trkpt lat="48.78004" lon="2.26347">
        <ele>151</ele>
        <time>2026-02-19T17:57:48.000Z</time>
      </trkpt>
      <trkpt lat="48.7802" lon="2.26353">
        <ele>149</ele>
        <time>2026-02-19T17:58:07.000Z</time>
      </trkpt>
      <trkpt lat="48.78048" lon="2.26373">
        <ele>147</ele>
        <time>2026-02-19T17:58:42.000Z</time>
      </trkpt>
      <trkpt lat="48.7806" lon="2.26389">
        <ele>146</ele>
        <time>2026-02-19T17:59:01.000Z</time>
      </trkpt>
      <trkpt lat="48.7806" lon="2.26392">
        <ele>146</ele>
        <time>2026-02-19T17:59:03.000Z</time>
      </trkpt>
      <trkpt lat="48.7806" lon="2.26389">
        <ele>146</ele>
        <time>2026-02-19T17:59:05.000Z</time>
      </trkpt>
      <trkpt lat="48.78053" lon="2.26403">
        <ele>147</ele>
        <time>2026-02-19T17:59:28.000Z</time>
      </trkpt>
      <trkpt lat="48.78053" lon="2.26458">
        <ele>152</ele>
        <time>2026-02-19T18:01:01.000Z</time>
      </trkpt>
      <trkpt lat="48.77993" lon="2.26464">
        <ele>157</ele>
        <time>2026-02-19T18:03:01.000Z</time>
      </trkpt>
      <trkpt lat="48.77993" lon="2.26464">
        <ele>157</ele>
        <time>2026-02-19T18:03:01.000Z</time>
      </trkpt>
      <trkpt lat="48.77975" lon="2.2647">
        <ele>159</ele>
        <time>2026-02-19T18:03:42.000Z</time>
      </trkpt>
      <trkpt lat="48.7795" lon="2.26497">
        <ele>161</ele>
        <time>2026-02-19T18:04:38.000Z</time>
      </trkpt>
      <trkpt lat="48.77951" lon="2.26496">
        <ele>161</ele>
        <time>2026-02-19T18:04:39.000Z</time>
      </trkpt>
      <trkpt lat="48.7795" lon="2.26497">
        <ele>161</ele>
        <time>2026-02-19T18:04:40.000Z</time>
      </trkpt>
      <trkpt lat="48.77957" lon="2.26518">
        <ele>161</ele>
        <time>2026-02-19T18:04:58.000Z</time>
      </trkpt>
      <trkpt lat="48.77958" lon="2.26543">
        <ele>160</ele>
        <time>2026-02-19T18:05:17.000Z</time>
      </trkpt>
      <trkpt lat="48.77955" lon="2.26558">
        <ele>161</ele>
        <time>2026-02-19T18:05:39.000Z</time>
      </trkpt>
      <trkpt lat="48.77955" lon="2.26558">
        <ele>161</ele>
        <time>2026-02-19T18:05:39.000Z</time>
      </trkpt>
      <trkpt lat="48.77955" lon="2.2656">
        <ele>161</ele>
        <time>2026-02-19T18:05:41.000Z</time>
      </trkpt>
      <trkpt lat="48.77958" lon="2.26581">
        <ele>161</ele>
        <time>2026-02-19T18:05:58.000Z</time>
      </trkpt>
      <trkpt lat="48.77971" lon="2.26614">
        <ele>161</ele>
        <time>2026-02-19T18:06:27.000Z</time>
      </trkpt>
      <trkpt lat="48.77979" lon="2.26623">
        <ele>161</ele>
        <time>2026-02-19T18:06:38.000Z</time>
      </trkpt>
      <trkpt lat="48.78001" lon="2.26635">
        <ele>159</ele>
        <time>2026-02-19T18:07:05.000Z</time>
      </trkpt>
      <trkpt lat="48.78021" lon="2.26659">
        <ele>157</ele>
        <time>2026-02-19T18:07:34.000Z</time>
      </trkpt>
      <trkpt lat="48.78021" lon="2.26657">
        <ele>157</ele>
        <time>2026-02-19T18:07:35.000Z</time>
      </trkpt>
      <trkpt lat="48.78021" lon="2.26659">
        <ele>157</ele>
        <time>2026-02-19T18:07:36.000Z</time>
      </trkpt>
      <trkpt lat="48.78" lon="2.26704">
        <ele>157</ele>
        <time>2026-02-19T18:08:18.000Z</time>
      </trkpt>
      <trkpt lat="48.77951" lon="2.26814">
        <ele>155</ele>
        <time>2026-02-19T18:09:58.000Z</time>
      </trkpt>
      <trkpt lat="48.77951" lon="2.26814">
        <ele>155</ele>
        <time>2026-02-19T18:09:58.000Z</time>
      </trkpt>
      <trkpt lat="48.77949" lon="2.26819">
        <ele>155</ele>
        <time>2026-02-19T18:10:03.000Z</time>
      </trkpt>
      <trkpt lat="48.77895" lon="2.26958">
        <ele>160</ele>
        <time>2026-02-19T18:12:55.000Z</time>
      </trkpt>
      <trkpt lat="48.77895" lon="2.26956">
        <ele>160</ele>
        <time>2026-02-19T18:12:56.000Z</time>
      </trkpt>
      <trkpt lat="48.77762" lon="2.26702">
        <ele>162</ele>
        <time>2026-02-19T18:17:21.000Z</time>
      </trkpt>
      <trkpt lat="48.77737" lon="2.2675">
        <ele>158</ele>
        <time>2026-02-19T18:18:08.000Z</time>
      </trkpt>
      <trkpt lat="48.77695" lon="2.26651">
        <ele>162</ele>
        <time>2026-02-19T18:20:18.000Z</time>
      </trkpt>
      <trkpt lat="48.77627" lon="2.26587">
        <ele>165</ele>
        <time>2026-02-19T18:22:21.000Z</time>
      </trkpt>
      <trkpt lat="48.77602" lon="2.26525">
        <ele>165</ele>
        <time>2026-02-19T18:23:15.000Z</time>
      </trkpt>
      <trkpt lat="48.77552" lon="2.266">
        <ele>153</ele>
        <time>2026-02-19T18:24:35.000Z</time>
      </trkpt>
      <trkpt lat="48.77523" lon="2.26588">
        <ele>147</ele>
        <time>2026-02-19T18:25:10.000Z</time>
      </trkpt>
      <trkpt lat="48.77504" lon="2.26604">
        <ele>146</ele>
        <time>2026-02-19T18:25:35.000Z</time>
      </trkpt>
      <trkpt lat="48.77486" lon="2.26631">
        <ele>143</ele>
        <time>2026-02-19T18:26:03.000Z</time>
      </trkpt>
      <trkpt lat="48.77486" lon="2.26671">
        <ele>142</ele>
        <time>2026-02-19T18:26:33.000Z</time>
      </trkpt>
      <trkpt lat="48.77509" lon="2.26695">
        <ele>140</ele>
        <time>2026-02-19T18:27:05.000Z</time>
      </trkpt>
      <trkpt lat="48.77552" lon="2.26705">
        <ele>138</ele>
        <time>2026-02-19T18:27:55.000Z</time>
      </trkpt>
      <trkpt lat="48.7757" lon="2.26705">
        <ele>137</ele>
        <time>2026-02-19T18:28:16.000Z</time>
      </trkpt>
      <trkpt lat="48.77564" lon="2.26759">
        <ele>125</ele>
        <time>2026-02-19T18:28:57.000Z</time>
      </trkpt>
      <trkpt lat="48.77547" lon="2.26793">
        <ele>118</ele>
        <time>2026-02-19T18:29:29.000Z</time>
      </trkpt>
      <trkpt lat="48.7752" lon="2.26842">
        <ele>108</ele>
        <time>2026-02-19T18:30:17.000Z</time>
      </trkpt>
      <trkpt lat="48.7751" lon="2.26921">
        <ele>105</ele>
        <time>2026-02-19T18:31:17.000Z</time>
      </trkpt>
      <trkpt lat="48.77445" lon="2.26848">
        <ele>105</ele>
        <time>2026-02-19T18:32:50.000Z</time>
      </trkpt>
      <trkpt lat="48.77432" lon="2.26859">
        <ele>104</ele>
        <time>2026-02-19T18:33:07.000Z</time>
      </trkpt>
      <trkpt lat="48.77438" lon="2.26894">
        <ele>102</ele>
        <time>2026-02-19T18:33:34.000Z</time>
      </trkpt>
      <trkpt lat="48.77437" lon="2.26942">
        <ele>100</ele>
        <time>2026-02-19T18:34:10.000Z</time>
      </trkpt>
      <trkpt lat="48.7743" lon="2.26961">
        <ele>99</ele>
        <time>2026-02-19T18:34:27.000Z</time>
      </trkpt>
      <trkpt lat="48.77387" lon="2.26989">
        <ele>97</ele>
        <time>2026-02-19T18:35:20.000Z</time>
      </trkpt>
      <trkpt lat="48.77446" lon="2.2705">
        <ele>101</ele>
        <time>2026-02-19T18:37:22.000Z</time>
      </trkpt>
      <trkpt lat="48.77449" lon="2.27051">
        <ele>101</ele>
        <time>2026-02-19T18:37:26.000Z</time>
      </trkpt>
      <trkpt lat="48.77444" lon="2.27047">
        <ele>100</ele>
        <time>2026-02-19T18:37:32.000Z</time>
      </trkpt>
      <trkpt lat="48.77434" lon="2.27085">
        <ele>102</ele>
        <time>2026-02-19T18:38:23.000Z</time>
      </trkpt>
      <trkpt lat="48.77434" lon="2.27085">
        <ele>102</ele>
        <time>2026-02-19T18:38:23.000Z</time>
      </trkpt>
      <trkpt lat="48.77422" lon="2.27077">
        <ele>100</ele>
        <time>2026-02-19T18:38:39.000Z</time>
      </trkpt>
      <trkpt lat="48.77416" lon="2.27093">
        <ele>100</ele>
        <time>2026-02-19T18:38:52.000Z</time>
      </trkpt>
      <trkpt lat="48.77384" lon="2.27066">
        <ele>97</ele>
        <time>2026-02-19T18:39:34.000Z</time>
      </trkpt>
      <trkpt lat="48.77384" lon="2.27066">
        <ele>97</ele>
        <time>2026-02-19T18:39:34.000Z</time>
      </trkpt>
      <trkpt lat="48.77378" lon="2.27056">
        <ele>96</ele>
        <time>2026-02-19T18:39:45.000Z</time>
      </trkpt>
      <trkpt lat="48.77382" lon="2.27037">
        <ele>96</ele>
        <time>2026-02-19T18:40:00.000Z</time>
      </trkpt>
      <trkpt lat="48.77391" lon="2.27023">
        <ele>97</ele>
        <time>2026-02-19T18:40:25.000Z</time>
      </trkpt>
      <trkpt lat="48.77386" lon="2.27001">
        <ele>97</ele>
        <time>2026-02-19T18:40:43.000Z</time>
      </trkpt>
      <trkpt lat="48.77388" lon="2.26999">
        <ele>97</ele>
        <time>2026-02-19T18:40:45.000Z</time>
      </trkpt>
      <trkpt lat="48.77385" lon="2.26987">
        <ele>97</ele>
        <time>2026-02-19T18:40:55.000Z</time>
      </trkpt>
      <trkpt lat="48.77374" lon="2.26972">
        <ele>98</ele>
        <time>2026-02-19T18:41:23.000Z</time>
      </trkpt>
      <trkpt lat="48.77367" lon="2.2694">
        <ele>99</ele>
        <time>2026-02-19T18:41:58.000Z</time>
      </trkpt>
      <trkpt lat="48.77366" lon="2.2694">
        <ele>99</ele>
        <time>2026-02-19T18:41:59.000Z</time>
      </trkpt>
      <trkpt lat="48.77367" lon="2.2694">
        <ele>99</ele>
        <time>2026-02-19T18:42:00.000Z</time>
      </trkpt>
      <trkpt lat="48.77367" lon="2.26935">
        <ele>99</ele>
        <time>2026-02-19T18:42:04.000Z</time>
      </trkpt>
      <trkpt lat="48.77371" lon="2.26909">
        <ele>101</ele>
        <time>2026-02-19T18:42:45.000Z</time>
      </trkpt>
      <trkpt lat="48.77385" lon="2.26868">
        <ele>104</ele>
        <time>2026-02-19T18:43:50.000Z</time>
      </trkpt>
      <trkpt lat="48.77389" lon="2.26847">
        <ele>105</ele>
        <time>2026-02-19T18:44:17.000Z</time>
      </trkpt>
      <trkpt lat="48.77387" lon="2.26813">
        <ele>109</ele>
        <time>2026-02-19T18:45:24.000Z</time>
      </trkpt>
      <trkpt lat="48.77365" lon="2.26794">
        <ele>108</ele>
        <time>2026-02-19T18:45:53.000Z</time>
      </trkpt>
      <trkpt lat="48.77338" lon="2.26752">
        <ele>108</ele>
        <time>2026-02-19T18:46:37.000Z</time>
      </trkpt>
      <trkpt lat="48.77378" lon="2.26663">
        <ele>116</ele>
        <time>2026-02-19T18:49:21.000Z</time>
      </trkpt>
      <trkpt lat="48.77405" lon="2.26619">
        <ele>119</ele>
        <time>2026-02-19T18:50:37.000Z</time>
      </trkpt>
      <trkpt lat="48.77451" lon="2.26563">
        <ele>125</ele>
        <time>2026-02-19T18:52:47.000Z</time>
      </trkpt>
      <trkpt lat="48.7745" lon="2.26566">
        <ele>124</ele>
        <time>2026-02-19T18:52:50.000Z</time>
      </trkpt>
      <trkpt lat="48.77405" lon="2.26619">
        <ele>119</ele>
        <time>2026-02-19T18:53:55.000Z</time>
      </trkpt>
      <trkpt lat="48.77378" lon="2.26663">
        <ele>116</ele>
        <time>2026-02-19T18:54:40.000Z</time>
      </trkpt>
      <trkpt lat="48.77338" lon="2.26752">
        <ele>108</ele>
        <time>2026-02-19T18:56:02.000Z</time>
      </trkpt>
      <trkpt lat="48.7734" lon="2.26714">
        <ele>110</ele>
        <time>2026-02-19T18:56:51.000Z</time>
      </trkpt>
      <trkpt lat="48.77337" lon="2.26706">
        <ele>110</ele>
        <time>2026-02-19T18:56:58.000Z</time>
      </trkpt>
      <trkpt lat="48.77343" lon="2.26679">
        <ele>113</ele>
        <time>2026-02-19T18:57:51.000Z</time>
      </trkpt>
      <trkpt lat="48.77342" lon="2.26648">
        <ele>115</ele>
        <time>2026-02-19T18:58:35.000Z</time>
      </trkpt>
      <trkpt lat="48.77335" lon="2.26621">
        <ele>117</ele>
        <time>2026-02-19T18:59:17.000Z</time>
      </trkpt>
      <trkpt lat="48.7732" lon="2.26596">
        <ele>119</ele>
        <time>2026-02-19T19:00:03.000Z</time>
      </trkpt>
      <trkpt lat="48.7732" lon="2.26596">
        <ele>119</ele>
        <time>2026-02-19T19:00:03.000Z</time>
      </trkpt>
      <trkpt lat="48.77301" lon="2.26569">
        <ele>121</ele>
        <time>2026-02-19T19:00:53.000Z</time>
      </trkpt>
      <trkpt lat="48.77291" lon="2.26528">
        <ele>123</ele>
        <time>2026-02-19T19:01:47.000Z</time>
      </trkpt>
      <trkpt lat="48.77282" lon="2.26511">
        <ele>123</ele>
        <time>2026-02-19T19:02:03.000Z</time>
      </trkpt>
      <trkpt lat="48.77279" lon="2.26494">
        <ele>124</ele>
        <time>2026-02-19T19:02:26.000Z</time>
      </trkpt>
      <trkpt lat="48.77271" lon="2.26474">
        <ele>124</ele>
        <time>2026-02-19T19:02:43.000Z</time>
      </trkpt>
      <trkpt lat="48.77281" lon="2.26418">
        <ele>123</ele>
        <time>2026-02-19T19:03:27.000Z</time>
      </trkpt>
      <trkpt lat="48.77298" lon="2.26369">
        <ele>124</ele>
        <time>2026-02-19T19:04:19.000Z</time>
      </trkpt>
      <trkpt lat="48.77296" lon="2.26365">
        <ele>124</ele>
        <time>2026-02-19T19:04:23.000Z</time>
      </trkpt>
      <trkpt lat="48.77247" lon="2.26359">
        <ele>121</ele>
        <time>2026-02-19T19:05:20.000Z</time>
      </trkpt>
      <trkpt lat="48.77219" lon="2.26312">
        <ele>122</ele>
        <time>2026-02-19T19:06:18.000Z</time>
      </trkpt>
      <trkpt lat="48.77216" lon="2.26297">
        <ele>123</ele>
        <time>2026-02-19T19:06:40.000Z</time>
      </trkpt>
      <trkpt lat="48.77232" lon="2.26272">
        <ele>126</ele>
        <time>2026-02-19T19:07:37.000Z</time>
      </trkpt>
      <trkpt lat="48.77216" lon="2.26227">
        <ele>130</ele>
        <time>2026-02-19T19:08:57.000Z</time>
      </trkpt>
      <trkpt lat="48.77203" lon="2.26188">
        <ele>131</ele>
        <time>2026-02-19T19:09:41.000Z</time>
      </trkpt>
      <trkpt lat="48.77166" lon="2.26129">
        <ele>133</ele>
        <time>2026-02-19T19:11:03.000Z</time>
      </trkpt>
      <trkpt lat="48.77147" lon="2.26124">
        <ele>131</ele>
        <time>2026-02-19T19:11:25.000Z</time>
      </trkpt>
      <trkpt lat="48.77099" lon="2.26089">
        <ele>129</ele>
        <time>2026-02-19T19:12:26.000Z</time>
      </trkpt>
      <trkpt lat="48.77059" lon="2.26064">
        <ele>124</ele>
        <time>2026-02-19T19:13:16.000Z</time>
      </trkpt>
      <trkpt lat="48.7705" lon="2.26082">
        <ele>120</ele>
        <time>2026-02-19T19:13:33.000Z</time>
      </trkpt>
      <trkpt lat="48.77063" lon="2.26115">
        <ele>119</ele>
        <time>2026-02-19T19:14:02.000Z</time>
      </trkpt>
      <trkpt lat="48.7705" lon="2.2616">
        <ele>116</ele>
        <time>2026-02-19T19:14:39.000Z</time>
      </trkpt>
      <trkpt lat="48.77063" lon="2.26238">
        <ele>114</ele>
        <time>2026-02-19T19:15:40.000Z</time>
      </trkpt>
      <trkpt lat="48.77092" lon="2.26309">
        <ele>113</ele>
        <time>2026-02-19T19:16:43.000Z</time>
      </trkpt>
      <trkpt lat="48.77139" lon="2.26365">
        <ele>116</ele>
        <time>2026-02-19T19:18:22.000Z</time>
      </trkpt>
      <trkpt lat="48.77178" lon="2.26421">
        <ele>118</ele>
        <time>2026-02-19T19:19:44.000Z</time>
      </trkpt>
      <trkpt lat="48.77206" lon="2.26456">
        <ele>119</ele>
        <time>2026-02-19T19:20:37.000Z</time>
      </trkpt>
      <trkpt lat="48.77244" lon="2.26459">
        <ele>122</ele>
        <time>2026-02-19T19:21:51.000Z</time>
      </trkpt>
      <trkpt lat="48.77259" lon="2.26424">
        <ele>122</ele>
        <time>2026-02-19T19:22:22.000Z</time>
      </trkpt>
      <trkpt lat="48.77254" lon="2.26386">
        <ele>121</ele>
        <time>2026-02-19T19:22:51.000Z</time>
      </trkpt>
      <trkpt lat="48.77283" lon="2.26396">
        <ele>123</ele>
        <time>2026-02-19T19:23:46.000Z</time>
      </trkpt>
      <trkpt lat="48.77268" lon="2.26461">
        <ele>123</ele>
        <time>2026-02-19T19:24:38.000Z</time>
      </trkpt>
      <trkpt lat="48.7728" lon="2.26525">
        <ele>122</ele>
        <time>2026-02-19T19:25:28.000Z</time>
      </trkpt>
      <trkpt lat="48.77268" lon="2.26602">
        <ele>117</ele>
        <time>2026-02-19T19:26:28.000Z</time>
      </trkpt>
      <trkpt lat="48.77266" lon="2.26619">
        <ele>115</ele>
        <time>2026-02-19T19:26:41.000Z</time>
      </trkpt>
      <trkpt lat="48.77257" lon="2.26663">
        <ele>111</ele>
        <time>2026-02-19T19:27:15.000Z</time>
      </trkpt>
      <trkpt lat="48.77261" lon="2.26662">
        <ele>111</ele>
        <time>2026-02-19T19:27:19.000Z</time>
      </trkpt>
      <trkpt lat="48.77262" lon="2.26671">
        <ele>110</ele>
        <time>2026-02-19T19:27:26.000Z</time>
      </trkpt>
      <trkpt lat="48.77273" lon="2.26681">
        <ele>109</ele>
        <time>2026-02-19T19:27:40.000Z</time>
      </trkpt>
      <trkpt lat="48.773" lon="2.26681">
        <ele>110</ele>
        <time>2026-02-19T19:28:21.000Z</time>
      </trkpt>
      <trkpt lat="48.77323" lon="2.2669">
        <ele>111</ele>
        <time>2026-02-19T19:28:59.000Z</time>
      </trkpt>
      <trkpt lat="48.7734" lon="2.26714">
        <ele>110</ele>
        <time>2026-02-19T19:29:25.000Z</time>
      </trkpt>
      <trkpt lat="48.77338" lon="2.26752">
        <ele>108</ele>
        <time>2026-02-19T19:29:54.000Z</time>
      </trkpt>
      <trkpt lat="48.7729" lon="2.26812">
        <ele>103</ele>
        <time>2026-02-19T19:31:06.000Z</time>
      </trkpt>
      <trkpt lat="48.77329" lon="2.26871">
        <ele>103</ele>
        <time>2026-02-19T19:32:09.000Z</time>
      </trkpt>
      <trkpt lat="48.77353" lon="2.2688">
        <ele>103</ele>
        <time>2026-02-19T19:32:37.000Z</time>
      </trkpt>
      <trkpt lat="48.77353" lon="2.2688">
        <ele>103</ele>
        <time>2026-02-19T19:32:37.000Z</time>
      </trkpt>
      <trkpt lat="48.77353" lon="2.26881">
        <ele>102</ele>
        <time>2026-02-19T19:32:38.000Z</time>
      </trkpt>
      <trkpt lat="48.77352" lon="2.26889">
        <ele>102</ele>
        <time>2026-02-19T19:32:44.000Z</time>
      </trkpt>
      <trkpt lat="48.77346" lon="2.26895">
        <ele>101</ele>
        <time>2026-02-19T19:32:52.000Z</time>
      </trkpt>
      <trkpt lat="48.77345" lon="2.26894">
        <ele>101</ele>
        <time>2026-02-19T19:32:53.000Z</time>
      </trkpt>
      <trkpt lat="48.7733" lon="2.26914">
        <ele>99</ele>
        <time>2026-02-19T19:33:16.000Z</time>
      </trkpt>
      <trkpt lat="48.77315" lon="2.26954">
        <ele>97</ele>
        <time>2026-02-19T19:33:51.000Z</time>
      </trkpt>
      <trkpt lat="48.77316" lon="2.26953">
        <ele>97</ele>
        <time>2026-02-19T19:33:52.000Z</time>
      </trkpt>
      <trkpt lat="48.77297" lon="2.26937">
        <ele>97</ele>
        <time>2026-02-19T19:34:16.000Z</time>
      </trkpt>
      <trkpt lat="48.77262" lon="2.26944">
        <ele>96</ele>
        <time>2026-02-19T19:34:56.000Z</time>
      </trkpt>
      <trkpt lat="48.77225" lon="2.26908">
        <ele>97</ele>
        <time>2026-02-19T19:35:57.000Z</time>
      </trkpt>
      <trkpt lat="48.77203" lon="2.26905">
        <ele>98</ele>
        <time>2026-02-19T19:36:33.000Z</time>
      </trkpt>
      <trkpt lat="48.77168" lon="2.26939">
        <ele>97</ele>
        <time>2026-02-19T19:37:20.000Z</time>
      </trkpt>
      <trkpt lat="48.7714" lon="2.26899">
        <ele>98</ele>
        <time>2026-02-19T19:38:15.000Z</time>
      </trkpt>
      <trkpt lat="48.77095" lon="2.26941">
        <ele>99</ele>
        <time>2026-02-19T19:39:25.000Z</time>
      </trkpt>
      <trkpt lat="48.77061" lon="2.26961">
        <ele>102</ele>
        <time>2026-02-19T19:40:38.000Z</time>
      </trkpt>
      <trkpt lat="48.77028" lon="2.26998">
        <ele>102</ele>
        <time>2026-02-19T19:41:25.000Z</time>
      </trkpt>
      <trkpt lat="48.77015" lon="2.27037">
        <ele>102</ele>
        <time>2026-02-19T19:41:58.000Z</time>
      </trkpt>
      <trkpt lat="48.77033" lon="2.27065">
        <ele>101</ele>
        <time>2026-02-19T19:42:27.000Z</time>
      </trkpt>
      <trkpt lat="48.77079" lon="2.27043">
        <ele>100</ele>
        <time>2026-02-19T19:43:22.000Z</time>
      </trkpt>
      <trkpt lat="48.7711" lon="2.27026">
        <ele>99</ele>
        <time>2026-02-19T19:44:00.000Z</time>
      </trkpt>
      <trkpt lat="48.77122" lon="2.27004">
        <ele>98</ele>
        <time>2026-02-19T19:44:22.000Z</time>
      </trkpt>
      <trkpt lat="48.77159" lon="2.27021">
        <ele>96</ele>
        <time>2026-02-19T19:45:07.000Z</time>
      </trkpt>
      <trkpt lat="48.77157" lon="2.27053">
        <ele>96</ele>
        <time>2026-02-19T19:45:32.000Z</time>
      </trkpt>
      <trkpt lat="48.77165" lon="2.27072">
        <ele>95</ele>
        <time>2026-02-19T19:45:49.000Z</time>
      </trkpt>
      <trkpt lat="48.77156" lon="2.27097">
        <ele>95</ele>
        <time>2026-02-19T19:46:11.000Z</time>
      </trkpt>
      <trkpt lat="48.77149" lon="2.27119">
        <ele>95</ele>
        <time>2026-02-19T19:46:29.000Z</time>
      </trkpt>
      <trkpt lat="48.77162" lon="2.27124">
        <ele>95</ele>
        <time>2026-02-19T19:46:43.000Z</time>
      </trkpt>
      <trkpt lat="48.77177" lon="2.27124">
        <ele>94</ele>
        <time>2026-02-19T19:47:00.000Z</time>
      </trkpt>
      <trkpt lat="48.7718" lon="2.27081">
        <ele>95</ele>
        <time>2026-02-19T19:47:43.000Z</time>
      </trkpt>
      <trkpt lat="48.77181" lon="2.27044">
        <ele>95</ele>
        <time>2026-02-19T19:48:11.000Z</time>
      </trkpt>
      <trkpt lat="48.77172" lon="2.27002">
        <ele>96</ele>
        <time>2026-02-19T19:48:54.000Z</time>
      </trkpt>
      <trkpt lat="48.77184" lon="2.26975">
        <ele>96</ele>
        <time>2026-02-19T19:49:19.000Z</time>
      </trkpt>
      <trkpt lat="48.77215" lon="2.27105">
        <ele>93</ele>
        <time>2026-02-19T19:51:03.000Z</time>
      </trkpt>
      <trkpt lat="48.77225" lon="2.27142">
        <ele>92</ele>
        <time>2026-02-19T19:51:33.000Z</time>
      </trkpt>
      <trkpt lat="48.77259" lon="2.27156">
        <ele>91</ele>
        <time>2026-02-19T19:52:13.000Z</time>
      </trkpt>
      <trkpt lat="48.77278" lon="2.27137">
        <ele>91</ele>
        <time>2026-02-19T19:52:39.000Z</time>
      </trkpt>
      <trkpt lat="48.77301" lon="2.27092">
        <ele>93</ele>
        <time>2026-02-19T19:53:43.000Z</time>
      </trkpt>
      <trkpt lat="48.7729" lon="2.27124">
        <ele>92</ele>
        <time>2026-02-19T19:54:10.000Z</time>
      </trkpt>
      <trkpt lat="48.77294" lon="2.27152">
        <ele>91</ele>
        <time>2026-02-19T19:54:32.000Z</time>
      </trkpt>
      <trkpt lat="48.77287" lon="2.2719">
        <ele>90</ele>
        <time>2026-02-19T19:55:02.000Z</time>
      </trkpt>
      <trkpt lat="48.77269" lon="2.27211">
        <ele>90</ele>
        <time>2026-02-19T19:55:28.000Z</time>
      </trkpt>
      <trkpt lat="48.77236" lon="2.27173">
        <ele>91</ele>
        <time>2026-02-19T19:56:26.000Z</time>
      </trkpt>
      <trkpt lat="48.7717" lon="2.27199">
        <ele>93</ele>
        <time>2026-02-19T19:58:04.000Z</time>
      </trkpt>
      <trkpt lat="48.77108" lon="2.27221">
        <ele>94</ele>
        <time>2026-02-19T19:59:27.000Z</time>
      </trkpt>
      <trkpt lat="48.77011" lon="2.27259">
        <ele>98</ele>
        <time>2026-02-19T20:02:03.000Z</time>
      </trkpt>
      <trkpt lat="48.7701" lon="2.27323">
        <ele>98</ele>
        <time>2026-02-19T20:02:52.000Z</time>
      </trkpt>
      <trkpt lat="48.77026" lon="2.27431">
        <ele>95</ele>
        <time>2026-02-19T20:04:15.000Z</time>
      </trkpt>
      <trkpt lat="48.77066" lon="2.2767">
        <ele>93</ele>
        <time>2026-02-19T20:07:21.000Z</time>
      </trkpt>
      <trkpt lat="48.77105" lon="2.2792">
        <ele>91</ele>
        <time>2026-02-19T20:10:35.000Z</time>
      </trkpt>
      <trkpt lat="48.77135" lon="2.28099">
        <ele>88</ele>
        <time>2026-02-19T20:12:54.000Z</time>
      </trkpt>
      <trkpt lat="48.77154" lon="2.28226">
        <ele>87</ele>
        <time>2026-02-19T20:14:32.000Z</time>
      </trkpt>
      <trkpt lat="48.77179" lon="2.28395">
        <ele>84</ele>
        <time>2026-02-19T20:16:42.000Z</time>
      </trkpt>
      <trkpt lat="48.77187" lon="2.28471">
        <ele>82</ele>
        <time>2026-02-19T20:17:40.000Z</time>
      </trkpt>
      <trkpt lat="48.7726" lon="2.28525">
        <ele>80</ele>
        <time>2026-02-19T20:19:14.000Z</time>
      </trkpt>
      <trkpt lat="48.77282" lon="2.28546">
        <ele>80</ele>
        <time>2026-02-19T20:19:43.000Z</time>
      </trkpt>
      <trkpt lat="48.77278" lon="2.286">
        <ele>75</ele>
        <time>2026-02-19T20:20:24.000Z</time>
      </trkpt>
      <trkpt lat="48.77269" lon="2.28645">
        <ele>74</ele>
        <time>2026-02-19T20:21:00.000Z</time>
      </trkpt>
      <trkpt lat="48.77265" lon="2.28824">
        <ele>68</ele>
        <time>2026-02-19T20:23:15.000Z</time>
      </trkpt>
      <trkpt lat="48.77228" lon="2.28857">
        <ele>68</ele>
        <time>2026-02-19T20:24:04.000Z</time>
      </trkpt>
      <trkpt lat="48.77223" lon="2.28938">
        <ele>66</ele>
        <time>2026-02-19T20:25:05.000Z</time>
      </trkpt>
      <trkpt lat="48.77312" lon="2.29539">
        <ele>71</ele>
        <time>2026-02-19T20:33:41.000Z</time>
      </trkpt>
      <trkpt lat="48.77223" lon="2.29586">
        <ele>60</ele>
        <time>2026-02-19T20:35:29.000Z</time>
      </trkpt>
      <trkpt lat="48.7671" lon="2.29101">
        <ele>69</ele>
        <time>2026-02-19T20:48:33.000Z</time>
      </trkpt>
      <trkpt lat="48.76687" lon="2.29029">
        <ele>72</ele>
        <time>2026-02-19T20:50:04.000Z</time>
      </trkpt>
      <trkpt lat="48.76704" lon="2.29326">
        <ele>62</ele>
        <time>2026-02-19T20:53:49.000Z</time>
      </trkpt>
      <trkpt lat="48.76656" lon="2.29429">
        <ele>60</ele>
        <time>2026-02-19T20:55:24.000Z</time>
      </trkpt>
      <trkpt lat="48.76707" lon="2.29815">
        <ele>56</ele>
        <time>2026-02-19T21:00:21.000Z</time>
      </trkpt>
      <trkpt lat="48.76331" lon="2.29951">
        <ele>56</ele>
        <time>2026-02-19T21:07:43.000Z</time>
      </trkpt>
      <trkpt lat="48.76299" lon="2.30055">
        <ele>56</ele>
        <time>2026-02-19T21:09:10.000Z</time>
      </trkpt>
      <trkpt lat="48.76248" lon="2.3005">
        <ele>55</ele>
        <time>2026-02-19T21:10:08.000Z</time>
      </trkpt>
      <trkpt lat="48.7628" lon="2.3007">
        <ele>56</ele>
        <time>2026-02-19T21:10:58.000Z</time>
      </trkpt>
      <trkpt lat="48.763" lon="2.3007">
        <ele>56</ele>
        <time>2026-02-19T21:11:20.000Z</time>
      </trkpt>
      <trkpt lat="48.76331" lon="2.30111">
        <ele>56</ele>
        <time>2026-02-19T21:12:07.000Z</time>
      </trkpt>
      <trkpt lat="48.76348" lon="2.30124">
        <ele>56</ele>
        <time>2026-02-19T21:12:29.000Z</time>
      </trkpt>
      <trkpt lat="48.76518" lon="2.3007">
        <ele>56</ele>
        <time>2026-02-19T21:15:49.000Z</time>
      </trkpt>
      <trkpt lat="48.7668" lon="2.30135">
        <ele>60</ele>
        <time>2026-02-19T21:19:42.000Z</time>
      </trkpt>
      <trkpt lat="48.7673" lon="2.30188">
        <ele>59</ele>
        <time>2026-02-19T21:20:51.000Z</time>
      </trkpt>
      <trkpt lat="48.76747" lon="2.30268">
        <ele>58</ele>
        <time>2026-02-19T21:21:54.000Z</time>
      </trkpt>
      <trkpt lat="48.76757" lon="2.30268">
        <ele>57</ele>
        <time>2026-02-19T21:22:05.000Z</time>
      </trkpt>
      <trkpt lat="48.76765" lon="2.30288">
        <ele>57</ele>
        <time>2026-02-19T21:22:23.000Z</time>
      </trkpt>
      <trkpt lat="48.76811" lon="2.30324">
        <ele>56</ele>
        <time>2026-02-19T21:23:22.000Z</time>
      </trkpt>
      <trkpt lat="48.769" lon="2.30296">
        <ele>58</ele>
        <time>2026-02-19T21:25:26.000Z</time>
      </trkpt>
      <trkpt lat="48.76946" lon="2.30223">
        <ele>59</ele>
        <time>2026-02-19T21:26:53.000Z</time>
      </trkpt>
      <trkpt lat="48.76942" lon="2.30196">
        <ele>57</ele>
        <time>2026-02-19T21:27:14.000Z</time>
      </trkpt>
      <trkpt lat="48.76931" lon="2.30201">
        <ele>56</ele>
        <time>2026-02-19T21:27:27.000Z</time>
      </trkpt>
      <trkpt lat="48.76914" lon="2.30122">
        <ele>56</ele>
        <time>2026-02-19T21:28:30.000Z</time>
      </trkpt>
      <trkpt lat="48.77008" lon="2.29925">
        <ele>57</ele>
        <time>2026-02-19T21:31:44.000Z</time>
      </trkpt>
      <trkpt lat="48.76992" lon="2.29856">
        <ele>56</ele>
        <time>2026-02-19T21:32:39.000Z</time>
      </trkpt>
      <trkpt lat="48.7715" lon="2.29794">
        <ele>56</ele>
        <time>2026-02-19T21:35:46.000Z</time>
      </trkpt>
      <trkpt lat="48.77184" lon="2.29806">
        <ele>58</ele>
        <time>2026-02-19T21:36:47.000Z</time>
      </trkpt>
      <trkpt lat="48.77239" lon="2.29776">
        <ele>60</ele>
        <time>2026-02-19T21:38:14.000Z</time>
      </trkpt>
      <trkpt lat="48.77246" lon="2.29808">
        <ele>65</ele>
        <time>2026-02-19T21:39:31.000Z</time>
      </trkpt>
      <trkpt lat="48.77348" lon="2.29772">
        <ele>80</ele>
        <time>2026-02-19T21:44:04.000Z</time>
      </trkpt>
      <trkpt lat="48.77359" lon="2.29805">
        <ele>81</ele>
        <time>2026-02-19T21:44:42.000Z</time>
      </trkpt>
      <trkpt lat="48.77397" lon="2.29786">
        <ele>81</ele>
        <time>2026-02-19T21:45:28.000Z</time>
      </trkpt>
      <trkpt lat="48.7745" lon="2.29768">
        <ele>81</ele>
        <time>2026-02-19T21:46:30.000Z</time>
      </trkpt>
      <trkpt lat="48.77454" lon="2.29793">
        <ele>84</ele>
        <time>2026-02-19T21:47:20.000Z</time>
      </trkpt>
      <trkpt lat="48.77478" lon="2.29922">
        <ele>88</ele>
        <time>2026-02-19T21:49:43.000Z</time>
      </trkpt>
      <trkpt lat="48.77426" lon="2.29941">
        <ele>88</ele>
        <time>2026-02-19T21:50:44.000Z</time>
      </trkpt>
      <trkpt lat="48.77436" lon="2.29993">
        <ele>92</ele>
        <time>2026-02-19T21:52:06.000Z</time>
      </trkpt>
      <trkpt lat="48.77455" lon="2.29987">
        <ele>92</ele>
        <time>2026-02-19T21:52:29.000Z</time>
      </trkpt>
      <trkpt lat="48.77461" lon="2.3002">
        <ele>92</ele>
        <time>2026-02-19T21:52:55.000Z</time>
      </trkpt>
      <trkpt lat="48.77444" lon="2.30062">
        <ele>92</ele>
        <time>2026-02-19T21:53:32.000Z</time>
      </trkpt>
      <trkpt lat="48.77469" lon="2.30205">
        <ele>92</ele>
        <time>2026-02-19T21:55:24.000Z</time>
      </trkpt>
      <trkpt lat="48.77554" lon="2.30174">
        <ele>96</ele>
        <time>2026-02-19T21:57:45.000Z</time>
      </trkpt>
      <trkpt lat="48.77575" lon="2.30208">
        <ele>96</ele>
        <time>2026-02-19T21:58:20.000Z</time>
      </trkpt>
      <trkpt lat="48.77587" lon="2.30242">
        <ele>95</ele>
        <time>2026-02-19T21:58:49.000Z</time>
      </trkpt>
      <trkpt lat="48.77621" lon="2.3028">
        <ele>94</ele>
        <time>2026-02-19T21:59:37.000Z</time>
      </trkpt>
      <trkpt lat="48.77654" lon="2.30266">
        <ele>93</ele>
        <time>2026-02-19T22:00:16.000Z</time>
      </trkpt>
      <trkpt lat="48.77661" lon="2.30244">
        <ele>94</ele>
        <time>2026-02-19T22:00:45.000Z</time>
      </trkpt>
      <trkpt lat="48.77641" lon="2.30145">
        <ele>96</ele>
        <time>2026-02-19T22:02:24.000Z</time>
      </trkpt>
      <trkpt lat="48.77653" lon="2.30134">
        <ele>96</ele>
        <time>2026-02-19T22:02:39.000Z</time>
      </trkpt>
      <trkpt lat="48.77641" lon="2.30066">
        <ele>96</ele>
        <time>2026-02-19T22:03:32.000Z</time>
      </trkpt>
      <trkpt lat="48.77655" lon="2.30048">
        <ele>96</ele>
        <time>2026-02-19T22:03:54.000Z</time>
      </trkpt>
      <trkpt lat="48.77649" lon="2.30019">
        <ele>96</ele>
        <time>2026-02-19T22:04:17.000Z</time>
      </trkpt>
      <trkpt lat="48.77634" lon="2.30016">
        <ele>96</ele>
        <time>2026-02-19T22:04:34.000Z</time>
      </trkpt>
      <trkpt lat="48.77607" lon="2.29859">
        <ele>94</ele>
        <time>2026-02-19T22:06:36.000Z</time>
      </trkpt>
      <trkpt lat="48.77619" lon="2.2984">
        <ele>94</ele>
        <time>2026-02-19T22:06:56.000Z</time>
      </trkpt>
      <trkpt lat="48.77616" lon="2.29821">
        <ele>94</ele>
        <time>2026-02-19T22:07:11.000Z</time>
      </trkpt>
      <trkpt lat="48.77602" lon="2.29815">
        <ele>94</ele>
        <time>2026-02-19T22:07:27.000Z</time>
      </trkpt>
      <trkpt lat="48.7759" lon="2.29748">
        <ele>92</ele>
        <time>2026-02-19T22:08:19.000Z</time>
      </trkpt>
      <trkpt lat="48.7757" lon="2.29755">
        <ele>91</ele>
        <time>2026-02-19T22:08:43.000Z</time>
      </trkpt>
      <trkpt lat="48.77571" lon="2.29734">
        <ele>91</ele>
        <time>2026-02-19T22:08:59.000Z</time>
      </trkpt>
      <trkpt lat="48.77606" lon="2.29554">
        <ele>90</ele>
        <time>2026-02-19T22:11:20.000Z</time>
      </trkpt>
      <trkpt lat="48.77622" lon="2.29556">
        <ele>92</ele>
        <time>2026-02-19T22:11:59.000Z</time>
      </trkpt>
      <trkpt lat="48.77624" lon="2.29546">
        <ele>92</ele>
        <time>2026-02-19T22:12:07.000Z</time>
      </trkpt>
      <trkpt lat="48.77707" lon="2.29585">
        <ele>96</ele>
        <time>2026-02-19T22:14:29.000Z</time>
      </trkpt>
      <trkpt lat="48.77726" lon="2.29544">
        <ele>97</ele>
        <time>2026-02-19T22:15:17.000Z</time>
      </trkpt>
      <trkpt lat="48.77789" lon="2.2956">
        <ele>100</ele>
        <time>2026-02-19T22:17:01.000Z</time>
      </trkpt>
      <trkpt lat="48.77805" lon="2.29471">
        <ele>101</ele>
        <time>2026-02-19T22:18:21.000Z</time>
      </trkpt>
      <trkpt lat="48.77793" lon="2.29434">
        <ele>100</ele>
        <time>2026-02-19T22:18:52.000Z</time>
      </trkpt>
      <trkpt lat="48.77817" lon="2.29368">
        <ele>102</ele>
        <time>2026-02-19T22:20:10.000Z</time>
      </trkpt>
      <trkpt lat="48.77861" lon="2.29389">
        <ele>102</ele>
        <time>2026-02-19T22:21:03.000Z</time>
      </trkpt>
      <trkpt lat="48.77868" lon="2.29419">
        <ele>102</ele>
        <time>2026-02-19T22:21:27.000Z</time>
      </trkpt>
      <trkpt lat="48.77881" lon="2.29439">
        <ele>102</ele>
        <time>2026-02-19T22:21:48.000Z</time>
      </trkpt>
      <trkpt lat="48.77883" lon="2.29462">
        <ele>102</ele>
        <time>2026-02-19T22:22:06.000Z</time>
      </trkpt>
      <trkpt lat="48.78016" lon="2.29509">
        <ele>97</ele>
        <time>2026-02-19T22:24:43.000Z</time>
      </trkpt>
      <trkpt lat="48.77999" lon="2.29601">
        <ele>96</ele>
        <time>2026-02-19T22:25:55.000Z</time>
      </trkpt>
      <trkpt lat="48.77992" lon="2.29657">
        <ele>95</ele>
        <time>2026-02-19T22:26:38.000Z</time>
      </trkpt>
      <trkpt lat="48.78063" lon="2.29705">
        <ele>90</ele>
        <time>2026-02-19T22:28:07.000Z</time>
      </trkpt>
      <trkpt lat="48.78073" lon="2.29711">
        <ele>89</ele>
        <time>2026-02-19T22:28:19.000Z</time>
      </trkpt>
      <trkpt lat="48.78079" lon="2.29686">
        <ele>89</ele>
        <time>2026-02-19T22:28:39.000Z</time>
      </trkpt>
      <trkpt lat="48.78088" lon="2.29665">
        <ele>89</ele>
        <time>2026-02-19T22:28:58.000Z</time>
      </trkpt>
      <trkpt lat="48.78134" lon="2.29711">
        <ele>84</ele>
        <time>2026-02-19T22:30:02.000Z</time>
      </trkpt>
      <trkpt lat="48.78148" lon="2.29728">
        <ele>80</ele>
        <time>2026-02-19T22:30:22.000Z</time>
      </trkpt>
      <trkpt lat="48.78143" lon="2.29743">
        <ele>80</ele>
        <time>2026-02-19T22:30:34.000Z</time>
      </trkpt>
    </trkseg>
  </trk>
</gpx>